Time;durP1;ratioP1;P1;durP2;ratioP2;P2;SDS_P1;SDS_P2;PMS_P1;PMS_P2;Temp;Humidity;BMP_temperature;BMP_pressure;BME280_temperature;BME280_humidity;BME280_pressure;Samples;Min_cycle;Max_cycle;Signal;HPM_P1;HPM_P2
2023/07/24 00:00:13;;;;;;;2.60;1.73;;;19.60;99.90;;;;;;5050912;28;20459;-53
2023/07/24 00:02:38;;;;;;;1.98;1.75;;;19.60;99.90;;;;;;5053476;28;20032;-53
2023/07/24 00:05:04;;;;;;;5.00;1.67;;;19.60;99.90;;;;;;5050794;28;20458;-52
2023/07/24 00:07:29;;;;;;;2.05;1.42;;;19.50;99.90;;;;;;5050834;28;20029;-50
2023/07/24 00:09:55;;;;;;;2.20;1.75;;;19.50;99.90;;;;;;5051048;28;20021;-53
2023/07/24 00:12:21;;;;;;;2.15;1.92;;;19.50;99.90;;;;;;5050702;28;20021;-53
2023/07/24 00:14:47;;;;;;;2.25;1.55;;;19.50;99.90;;;;;;5050972;28;20029;-53
2023/07/24 00:17:12;;;;;;;2.05;1.65;;;19.50;99.90;;;;;;5050695;28;20086;-53
2023/07/24 00:19:38;;;;;;;2.63;1.98;;;19.40;99.90;;;;;;5050422;28;20432;-53
2023/07/24 00:22:03;;;;;;;2.38;1.63;;;19.40;99.90;;;;;;5051025;28;20021;-53
2023/07/24 00:24:31;;;;;;;2.00;1.75;;;19.40;99.90;;;;;;5050516;28;20557;-54
2023/07/24 00:26:56;;;;;;;3.05;1.30;;;19.40;99.90;;;;;;5050530;28;20067;-53
2023/07/24 00:29:22;;;;;;;4.50;2.28;;;19.30;99.90;;;;;;5050523;28;20146;-54
2023/07/24 00:31:47;;;;;;;2.58;1.70;;;19.30;99.90;;;;;;5050692;28;20033;-53
2023/07/24 00:34:13;;;;;;;3.72;1.98;;;19.30;99.90;;;;;;5048619;28;20048;-53
2023/07/24 00:36:39;;;;;;;2.22;1.77;;;19.30;99.90;;;;;;5050352;28;20103;-54
2023/07/24 00:39:04;;;;;;;2.35;1.85;;;19.20;99.90;;;;;;5050308;28;20393;-53
2023/07/24 00:41:30;;;;;;;3.95;1.80;;;19.30;99.90;;;;;;5049207;28;20075;-54
2023/07/24 00:43:55;;;;;;;3.47;2.13;;;19.20;99.90;;;;;;5050097;28;20017;-54
2023/07/24 00:46:21;;;;;;;4.15;2.00;;;19.30;99.90;;;;;;5050494;28;20429;-54
2023/07/24 00:48:47;;;;;;;2.80;2.00;;;19.30;99.90;;;;;;5050564;28;20115;-54
2023/07/24 00:51:13;;;;;;;3.85;2.10;;;19.30;99.90;;;;;;5050061;28;20491;-54
2023/07/24 00:53:38;;;;;;;3.75;2.08;;;19.30;99.90;;;;;;5049459;28;20357;-53
2023/07/24 00:56:05;;;;;;;2.72;1.75;;;19.30;99.90;;;;;;5049782;28;20086;-54
2023/07/24 00:58:30;;;;;;;6.15;2.97;;;19.30;99.90;;;;;;5049857;28;20056;-54
2023/07/24 01:00:56;;;;;;;3.10;2.42;;;19.30;99.90;;;;;;5045368;28;20025;-54
2023/07/24 01:03:31;;;;;;;5.30;2.30;;;19.30;99.90;;;;;;5043560;28;20104;-54
2023/07/24 01:05:56;;;;;;;4.47;2.33;;;19.30;99.90;;;;;;5046976;28;20535;-54
2023/07/24 01:08:23;;;;;;;2.55;1.85;;;19.30;99.90;;;;;;5049493;28;20116;-54
2023/07/24 01:10:48;;;;;;;3.38;2.45;;;19.20;99.90;;;;;;5050047;28;20107;-53
2023/07/24 01:13:24;;;;;;;4.72;2.50;;;19.20;99.90;;;;;;5047511;28;20021;-53
2023/07/24 01:16:03;;;;;;;4.38;2.25;;;19.20;99.90;;;;;;5049526;28;20083;-53
2023/07/24 01:18:30;;;;;;;3.53;2.28;;;19.20;99.90;;;;;;5045342;28;20501;-53
2023/07/24 01:20:57;;;;;;;2.65;2.10;;;19.10;99.90;;;;;;5049604;28;20117;-54
2023/07/24 01:23:46;;;;;;;2.13;1.90;;;19.20;99.90;;;;;;5048769;28;20478;-53
2023/07/24 01:26:12;;;;;;;2.50;2.00;;;19.10;99.90;;;;;;5049373;28;20021;-53
2023/07/24 01:28:39;;;;;;;2.30;2.05;;;19.10;99.90;;;;;;5049771;28;20192;-54
2023/07/24 01:31:05;;;;;;;2.92;2.05;;;19.10;99.90;;;;;;5048009;28;20059;-53
2023/07/24 01:33:33;;;;;;;1.98;1.80;;;19.10;99.90;;;;;;5048845;28;20048;-52
2023/07/24 01:36:00;;;;;;;2.58;1.80;;;19.10;99.90;;;;;;5047756;28;20053;-52
2023/07/24 01:38:27;;;;;;;2.50;1.98;;;19.10;99.90;;;;;;5048819;28;20025;-53
2023/07/24 01:40:54;;;;;;;3.17;2.13;;;19.00;99.90;;;;;;5049091;28;20032;-52
2023/07/24 01:43:20;;;;;;;2.22;2.03;;;19.00;99.90;;;;;;5048312;28;20051;-52
2023/07/24 01:45:45;;;;;;;2.35;1.73;;;19.00;99.90;;;;;;5049077;28;20057;-55
2023/07/24 01:48:11;;;;;;;3.65;1.88;;;19.00;99.90;;;;;;5049018;28;20043;-53
2023/07/24 01:50:36;;;;;;;3.00;1.95;;;19.00;99.90;;;;;;5048809;28;20067;-53
2023/07/24 01:53:02;;;;;;;4.10;1.67;;;18.90;99.90;;;;;;5047407;28;20434;-53
2023/07/24 01:55:27;;;;;;;2.15;1.80;;;18.90;99.90;;;;;;5048820;28;20025;-53
2023/07/24 01:57:53;;;;;;;3.20;1.80;;;18.90;99.90;;;;;;5048815;28;20052;-52
2023/07/24 02:00:18;;;;;;;2.72;1.83;;;18.90;99.90;;;;;;5048839;28;20514;-53
2023/07/24 02:02:44;;;;;;;3.35;1.85;;;18.90;99.90;;;;;;5048419;28;20100;-52
2023/07/24 02:05:09;;;;;;;2.60;1.90;;;18.90;99.90;;;;;;5048136;28;20144;-53
2023/07/24 02:07:35;;;;;;;3.60;1.50;;;18.90;99.90;;;;;;5047441;28;20032;-51
2023/07/24 02:10:00;;;;;;;6.35;2.45;;;18.90;99.90;;;;;;5047089;28;20028;-53
2023/07/24 02:12:26;;;;;;;4.78;1.35;;;18.90;99.90;;;;;;5048222;28;20425;-51
2023/07/24 02:14:53;;;;;;;1.95;1.75;;;18.90;99.90;;;;;;5048852;28;20025;-53
2023/07/24 02:17:18;;;;;;;2.70;1.50;;;18.90;99.90;;;;;;5048541;28;20166;-53
2023/07/24 02:19:44;;;;;;;3.35;1.60;;;18.90;99.90;;;;;;5046972;28;20534;-52
2023/07/24 02:22:10;;;;;;;2.60;1.90;;;18.90;99.90;;;;;;5046748;28;20139;-53
2023/07/24 02:24:36;;;;;;;2.80;1.88;;;18.90;99.90;;;;;;5046459;28;20115;-53
2023/07/24 02:27:02;;;;;;;1.65;1.55;;;19.00;99.90;;;;;;5044858;28;20017;-52
2023/07/24 02:29:27;;;;;;;1.80;1.35;;;18.90;99.90;;;;;;5043783;28;20111;-50
2023/07/24 02:31:54;;;;;;;1.50;1.40;;;18.90;99.90;;;;;;5047780;28;20108;-55
2023/07/24 02:34:24;;;;;;;3.72;1.98;;;18.90;99.90;;;;;;5048042;28;20036;-53
2023/07/24 02:36:50;;;;;;;2.25;1.88;;;18.90;99.90;;;;;;5048040;28;20402;-53
2023/07/24 02:39:15;;;;;;;2.78;1.80;;;19.00;99.90;;;;;;5041526;28;20033;-54
2023/07/24 02:41:41;;;;;;;2.65;2.40;;;19.00;99.90;;;;;;5044924;28;20023;-52
2023/07/24 02:44:06;;;;;;;3.05;1.85;;;19.00;99.90;;;;;;5047562;28;20025;-53
2023/07/24 02:46:31;;;;;;;2.17;1.98;;;19.00;99.90;;;;;;5048066;28;20297;-54
2023/07/24 02:48:57;;;;;;;2.63;2.20;;;19.00;99.90;;;;;;5048105;28;20060;-55
2023/07/24 02:51:23;;;;;;;3.60;1.98;;;19.00;99.90;;;;;;5048106;28;20104;-53
2023/07/24 02:53:48;;;;;;;2.40;1.80;;;19.00;99.90;;;;;;5047467;28;20032;-53
2023/07/24 02:56:14;;;;;;;2.80;1.90;;;19.00;99.90;;;;;;5048091;28;20402;-53
2023/07/24 02:58:39;;;;;;;2.13;1.92;;;19.00;99.90;;;;;;5047869;28;20471;-53
2023/07/24 03:01:06;;;;;;;2.40;2.13;;;19.00;99.90;;;;;;5047823;28;20379;-53
2023/07/24 03:03:32;;;;;;;4.50;2.30;;;19.00;99.90;;;;;;5046301;28;20556;-54
2023/07/24 03:05:58;;;;;;;2.38;1.90;;;19.00;99.90;;;;;;5047950;28;20082;-53
2023/07/24 03:08:23;;;;;;;3.08;2.13;;;19.00;99.90;;;;;;5052250;28;20029;-53
2023/07/24 03:10:49;;;;;;;2.05;1.85;;;19.10;99.90;;;;;;5049494;28;20029;-54
2023/07/24 03:13:14;;;;;;;2.05;1.83;;;19.00;99.90;;;;;;5047127;28;20666;-54
2023/07/24 03:15:40;;;;;;;3.13;2.50;;;19.00;99.90;;;;;;5049897;28;20025;-54
2023/07/24 03:18:06;;;;;;;6.30;2.33;;;19.10;99.90;;;;;;5051652;28;20064;-54
2023/07/24 03:20:31;;;;;;;2.95;2.38;;;19.10;99.90;;;;;;5053129;28;20486;-54
2023/07/24 03:22:57;;;;;;;2.42;2.00;;;19.10;99.90;;;;;;5048611;28;20033;-54
2023/07/24 03:25:22;;;;;;;5.53;2.15;;;19.10;99.90;;;;;;5047606;28;20229;-55
2023/07/24 03:27:48;;;;;;;2.00;1.83;;;19.10;99.90;;;;;;5050382;28;20043;-55
2023/07/24 03:30:13;;;;;;;2.20;2.00;;;19.10;99.90;;;;;;5050278;28;20025;-55
2023/07/24 03:32:39;;;;;;;1.60;1.50;;;19.10;99.90;;;;;;5051378;28;20017;-56
2023/07/24 03:35:06;;;;;;;4.63;2.30;;;19.10;99.90;;;;;;5050519;28;20045;-55
2023/07/24 03:37:33;;;;;;;4.65;2.03;;;19.00;99.90;;;;;;5051940;28;20433;-55
2023/07/24 03:39:59;;;;;;;2.30;1.90;;;19.10;99.90;;;;;;5051505;28;20057;-55
2023/07/24 03:42:31;;;;;;;2.55;1.77;;;19.10;99.90;;;;;;5051170;28;20414;-54
2023/07/24 03:44:57;;;;;;;4.60;2.30;;;19.10;99.90;;;;;;5051719;28;20017;-56
2023/07/24 03:47:24;;;;;;;3.88;2.22;;;19.10;99.90;;;;;;5051574;28;20090;-55
2023/07/24 03:49:50;;;;;;;2.15;1.95;;;19.10;99.90;;;;;;5051294;28;20632;-54
2023/07/24 03:52:15;;;;;;;2.85;2.55;;;19.10;99.90;;;;;;5050918;28;20118;-52
2023/07/24 03:54:41;;;;;;;3.20;1.95;;;19.10;99.90;;;;;;5050839;28;20096;-52
2023/07/24 03:57:07;;;;;;;2.90;2.42;;;19.10;99.90;;;;;;5051246;28;20108;-53
2023/07/24 03:59:32;;;;;;;3.78;2.33;;;19.20;99.90;;;;;;5050908;28;20021;-52
2023/07/24 04:01:58;;;;;;;3.83;3.05;;;19.10;99.90;;;;;;5051308;28;20031;-54
2023/07/24 04:04:24;;;;;;;3.75;2.53;;;19.10;99.90;;;;;;5049678;28;20021;-54
2023/07/24 04:06:50;;;;;;;7.25;2.70;;;19.20;99.90;;;;;;5050853;28;20044;-54
2023/07/24 04:09:15;;;;;;;7.38;3.13;;;19.20;99.90;;;;;;5050971;28;20083;-54
2023/07/24 04:11:44;;;;;;;3.08;2.72;;;19.20;99.90;;;;;;5050825;28;20025;-53
2023/07/24 04:14:10;;;;;;;3.70;2.90;;;19.20;99.90;;;;;;5045470;28;20029;-55
2023/07/24 04:16:36;;;;;;;3.75;2.47;;;19.10;99.90;;;;;;5049427;28;20025;-54
2023/07/24 04:19:02;;;;;;;3.40;2.53;;;19.10;99.90;;;;;;5049282;28;20459;-55
2023/07/24 04:21:27;;;;;;;5.95;3.40;;;19.10;99.90;;;;;;5050183;28;20214;-54
2023/07/24 04:23:53;;;;;;;3.10;2.72;;;19.00;99.90;;;;;;5050241;28;20021;-55
2023/07/24 04:26:18;;;;;;;3.85;2.15;;;19.00;99.90;;;;;;5053888;28;20028;-54
2023/07/24 04:28:44;;;;;;;4.63;2.70;;;19.00;99.90;;;;;;5050758;28;20301;-54
2023/07/24 04:31:09;;;;;;;2.80;2.25;;;19.00;99.90;;;;;;5050131;28;20108;-54
2023/07/24 04:33:35;;;;;;;3.10;2.40;;;19.10;99.90;;;;;;5053360;28;20517;-56
2023/07/24 04:36:00;;;;;;;3.67;2.47;;;19.10;99.90;;;;;;5049000;28;20052;-54
2023/07/24 04:38:26;;;;;;;2.63;2.30;;;19.20;99.90;;;;;;5049249;28;20325;-52
2023/07/24 04:40:51;;;;;;;2.53;2.13;;;19.20;99.90;;;;;;5045006;28;20498;-54
2023/07/24 04:43:17;;;;;;;4.40;2.45;;;19.30;99.90;;;;;;5048688;28;20025;-52
2023/07/24 04:45:42;;;;;;;2.88;1.85;;;19.20;99.90;;;;;;5050139;28;20552;-53
2023/07/24 04:48:08;;;;;;;3.88;2.38;;;19.20;99.90;;;;;;5050435;28;20053;-53
2023/07/24 04:50:34;;;;;;;2.50;2.30;;;19.20;99.90;;;;;;5048641;28;20109;-53
2023/07/24 04:52:59;;;;;;;3.55;2.50;;;19.30;99.90;;;;;;5049237;28;20116;-52
2023/07/24 04:55:25;;;;;;;2.88;2.53;;;19.20;99.90;;;;;;5049804;28;20036;-53
2023/07/24 04:57:50;;;;;;;2.70;2.20;;;19.20;99.90;;;;;;5049760;28;20043;-53
2023/07/24 05:00:16;;;;;;;4.95;2.80;;;19.20;99.90;;;;;;5049523;28;20036;-54
2023/07/24 05:02:42;;;;;;;4.10;2.83;;;19.20;99.90;;;;;;5049423;28;20414;-53
2023/07/24 05:05:08;;;;;;;5.38;2.28;;;19.20;99.90;;;;;;5048276;28;20082;-53
2023/07/24 05:07:33;;;;;;;3.08;2.00;;;19.20;99.90;;;;;;5049828;28;20198;-53
2023/07/24 05:09:59;;;;;;;3.42;2.65;;;19.20;99.90;;;;;;5049615;28;20033;-52
2023/07/24 05:12:25;;;;;;;3.75;2.60;;;19.40;99.90;;;;;;5049423;28;20029;-50
2023/07/24 05:14:50;;;;;;;2.45;2.08;;;19.40;99.90;;;;;;5049523;28;20468;-53
2023/07/24 05:17:16;;;;;;;5.82;1.98;;;19.50;99.90;;;;;;5049506;28;20058;-53
2023/07/24 05:19:41;;;;;;;2.80;2.40;;;19.60;99.90;;;;;;5048551;28;20313;-53
2023/07/24 05:22:07;;;;;;;2.85;2.30;;;19.50;99.90;;;;;;5049376;28;20020;-53
2023/07/24 05:24:33;;;;;;;2.28;1.90;;;19.60;99.90;;;;;;5044459;28;20033;-53
2023/07/24 05:26:58;;;;;;;3.30;2.00;;;19.70;99.90;;;;;;5040710;28;20129;-54
2023/07/24 05:29:24;;;;;;;2.72;2.33;;;19.70;99.90;;;;;;5048388;28;20029;-53
2023/07/24 05:31:49;;;;;;;2.28;1.83;;;19.70;99.90;;;;;;5048915;28;20024;-53
2023/07/24 05:34:15;;;;;;;2.78;1.98;;;19.70;99.90;;;;;;5048448;28;20025;-52
2023/07/24 05:36:41;;;;;;;3.88;2.30;;;19.70;99.90;;;;;;5046592;28;20090;-53
2023/07/24 05:39:07;;;;;;;2.55;2.22;;;19.70;99.90;;;;;;5045771;28;20122;-53
2023/07/24 05:41:32;;;;;;;5.47;2.50;;;19.70;99.90;;;;;;5048376;28;20091;-54
2023/07/24 05:43:58;;;;;;;5.50;2.75;;;19.70;99.90;;;;;;5047608;28;20029;-53
2023/07/24 05:46:23;;;;;;;3.47;2.50;;;19.80;99.90;;;;;;5045941;28;20025;-55
2023/07/24 05:48:49;;;;;;;5.30;2.50;;;19.80;99.90;;;;;;5046852;28;20025;-53
2023/07/24 05:51:14;;;;;;;3.70;2.10;;;19.80;99.90;;;;;;5048613;28;20295;-55
2023/07/24 05:53:40;;;;;;;5.85;2.08;;;20.00;99.90;;;;;;5047984;28;20415;-52
2023/07/24 05:56:05;;;;;;;6.25;2.60;;;20.00;99.90;;;;;;5048521;28;20044;-53
2023/07/24 05:58:31;;;;;;;4.93;2.40;;;20.10;99.90;;;;;;5048279;28;20511;-54
2023/07/24 06:00:56;;;;;;;3.90;2.35;;;20.10;99.90;;;;;;5047601;28;20025;-55
2023/07/24 06:03:23;;;;;;;4.03;2.30;;;20.20;99.90;;;;;;5047802;28;20441;-54
2023/07/24 06:05:55;;;;;;;2.05;1.83;;;20.20;99.90;;;;;;5047350;28;20060;-55
2023/07/24 06:08:21;;;;;;;4.20;2.33;;;20.20;99.90;;;;;;5048402;28;20036;-53
2023/07/24 06:10:48;;;;;;;2.38;2.17;;;20.30;99.90;;;;;;5047334;28;20060;-53
2023/07/24 06:13:17;;;;;;;2.67;2.03;;;20.30;99.90;;;;;;5047905;28;20502;-54
2023/07/24 06:15:42;;;;;;;3.45;2.28;;;20.40;99.90;;;;;;5048539;28;20078;-54
2023/07/24 06:18:08;;;;;;;4.25;2.08;;;20.50;99.90;;;;;;5047654;28;20025;-53
2023/07/24 06:20:34;;;;;;;2.22;2.03;;;20.60;99.90;;;;;;5046804;28;20433;-53
2023/07/24 06:22:59;;;;;;;3.60;2.38;;;20.70;99.90;;;;;;5047648;28;20043;-54
2023/07/24 06:25:25;;;;;;;2.50;2.30;;;20.70;99.90;;;;;;5048147;28;20021;-54
2023/07/24 06:27:51;;;;;;;3.92;2.42;;;20.80;99.90;;;;;;5047793;28;20553;-54
2023/07/24 06:30:17;;;;;;;2.95;2.13;;;20.90;99.90;;;;;;5048196;28;20021;-53
2023/07/24 06:32:43;;;;;;;3.67;2.13;;;21.00;99.90;;;;;;5045194;28;20028;-54
2023/07/24 06:35:08;;;;;;;2.67;2.25;;;21.10;99.90;;;;;;5053269;28;20123;-54
2023/07/24 06:37:34;;;;;;;3.83;2.28;;;21.10;99.90;;;;;;5052101;28;20102;-54
2023/07/24 06:40:00;;;;;;;2.75;2.40;;;21.00;99.90;;;;;;5047800;28;20025;-52
2023/07/24 06:42:25;;;;;;;3.95;2.63;;;20.90;99.90;;;;;;5046593;28;20025;-54
2023/07/24 06:44:51;;;;;;;3.20;2.25;;;20.80;99.90;;;;;;5047560;28;20175;-53
2023/07/24 06:47:16;;;;;;;3.70;2.58;;;20.60;99.90;;;;;;5044143;28;20364;-52
2023/07/24 06:49:41;;;;;;;4.00;2.83;;;20.50;99.90;;;;;;5044737;28;20034;-53
2023/07/24 06:52:07;;;;;;;2.50;2.30;;;20.50;99.90;;;;;;5047016;28;20032;-53
2023/07/24 06:54:32;;;;;;;7.22;3.20;;;20.50;99.90;;;;;;5047984;28;20490;-53
2023/07/24 06:56:58;;;;;;;5.72;2.95;;;20.40;99.90;;;;;;5047331;28;20040;-53
2023/07/24 06:59:24;;;;;;;4.47;2.75;;;20.40;99.90;;;;;;5047149;28;20486;-53
2023/07/24 07:01:49;;;;;;;3.38;2.60;;;20.60;99.90;;;;;;5047422;28;20092;-54
2023/07/24 07:04:15;;;;;;;4.22;2.83;;;20.80;99.90;;;;;;5047037;28;20382;-53
2023/07/24 07:06:41;;;;;;;2.70;2.38;;;20.90;99.90;;;;;;5045354;28;20039;-53
2023/07/24 07:09:07;;;;;;;3.72;2.70;;;21.10;99.90;;;;;;5046610;28;20017;-54
2023/07/24 07:11:32;;;;;;;3.10;2.78;;;21.30;99.90;;;;;;5046275;28;20040;-54
2023/07/24 07:13:58;;;;;;;3.17;2.30;;;21.30;99.90;;;;;;5046574;28;20100;-53
2023/07/24 07:16:23;;;;;;;4.90;2.58;;;21.40;99.90;;;;;;5047117;28;20087;-54
2023/07/24 07:18:49;;;;;;;3.22;2.47;;;21.50;99.90;;;;;;5046693;28;20028;-54
2023/07/24 07:21:14;;;;;;;2.90;2.45;;;21.60;99.90;;;;;;5047573;28;20146;-54
2023/07/24 07:23:40;;;;;;;4.82;2.70;;;21.70;99.90;;;;;;5046098;28;20028;-53
2023/07/24 07:26:06;;;;;;;3.85;2.63;;;21.70;99.90;;;;;;5048069;28;20021;-54
2023/07/24 07:28:31;;;;;;;3.60;2.80;;;21.70;99.90;;;;;;5046661;28;20060;-53
2023/07/24 07:30:57;;;;;;;4.07;2.85;;;21.80;99.90;;;;;;5047452;28;20029;-54
2023/07/24 07:33:23;;;;;;;2.65;2.38;;;21.80;99.90;;;;;;5047351;28;20021;-54
2023/07/24 07:35:49;;;;;;;3.67;3.15;;;21.70;99.90;;;;;;5047530;28;20025;-54
2023/07/24 07:38:14;;;;;;;6.60;3.40;;;21.60;99.90;;;;;;5046984;28;20039;-53
2023/07/24 07:40:40;;;;;;;9.00;3.30;;;21.60;99.90;;;;;;5047157;28;20036;-54
2023/07/24 07:43:06;;;;;;;3.38;2.90;;;21.50;99.90;;;;;;5045569;28;20120;-54
2023/07/24 07:45:31;;;;;;;2.92;2.47;;;21.50;99.90;;;;;;5046929;28;20053;-54
2023/07/24 07:47:57;;;;;;;3.38;2.83;;;21.60;99.90;;;;;;5045941;28;20029;-54
2023/07/24 07:50:22;;;;;;;6.10;2.83;;;21.70;99.90;;;;;;5046660;28;20025;-53
2023/07/24 07:52:52;;;;;;;3.97;3.03;;;21.70;99.90;;;;;;5054668;28;20134;-54
2023/07/24 07:55:19;;;;;;;4.35;2.95;;;21.80;99.90;;;;;;5053086;28;20029;-55
2023/07/24 07:57:44;;;;;;;5.55;3.17;;;22.00;99.90;;;;;;5043635;28;20028;-53
2023/07/24 08:00:10;;;;;;;3.67;2.88;;;22.10;99.90;;;;;;5038723;28;20024;-54
2023/07/24 08:02:39;;;;;;;2.85;2.42;;;22.30;99.90;;;;;;5045323;28;20107;-54
2023/07/24 08:05:09;;;;;;;5.18;2.88;;;22.50;99.90;;;;;;5046272;28;20044;-54
2023/07/24 08:07:34;;;;;;;4.80;3.50;;;22.60;99.90;;;;;;5043683;28;20021;-55
2023/07/24 08:10:00;;;;;;;4.75;2.50;;;22.60;99.90;;;;;;5041801;28;20664;-55
2023/07/24 08:12:26;;;;;;;3.00;2.55;;;22.80;99.90;;;;;;5043598;28;20101;-54
2023/07/24 08:14:51;;;;;;;3.75;2.95;;;22.90;99.90;;;;;;5046010;28;20474;-55
2023/07/24 08:17:17;;;;;;;3.67;3.08;;;23.10;99.90;;;;;;5042370;28;20100;-55
2023/07/24 08:19:42;;;;;;;3.60;2.65;;;23.30;99.90;;;;;;5043831;28;20025;-55
2023/07/24 08:22:08;;;;;;;3.33;2.50;;;23.40;99.90;;;;;;5041762;28;20497;-54
2023/07/24 08:24:35;;;;;;;3.90;2.85;;;23.80;99.90;;;;;;5043516;28;20508;-54
2023/07/24 08:27:01;;;;;;;4.72;3.22;;;24.10;99.90;;;;;;5042525;28;20053;-55
2023/07/24 08:29:26;;;;;;;4.50;3.53;;;24.60;99.90;;;;;;5042218;28;20051;-55
2023/07/24 08:31:52;;;;;;;7.13;3.25;;;24.50;99.90;;;;;;5040178;28;20033;-55
2023/07/24 08:34:17;;;;;;;5.32;3.10;;;25.00;99.50;;;;;;5049633;28;20072;-55
2023/07/24 08:36:43;;;;;;;6.20;2.92;;;25.30;99.20;;;;;;5049008;28;20090;-54
2023/07/24 08:39:08;;;;;;;3.80;2.60;;;26.00;98.10;;;;;;5050674;28;20021;-55
2023/07/24 08:41:35;;;;;;;3.15;2.85;;;27.20;96.10;;;;;;5049886;28;20032;-55
2023/07/24 08:44:01;;;;;;;6.03;3.60;;;28.00;94.20;;;;;;5050267;28;20288;-55
2023/07/24 08:46:27;;;;;;;6.00;3.50;;;27.90;92.10;;;;;;5050063;28;20013;-55
2023/07/24 08:48:54;;;;;;;3.97;2.88;;;28.40;91.90;;;;;;5050066;28;20040;-55
2023/07/24 08:51:21;;;;;;;3.33;2.83;;;28.60;91.00;;;;;;5050323;28;20025;-55
2023/07/24 08:53:48;;;;;;;5.78;3.40;;;29.10;89.50;;;;;;5048845;28;20025;-55
2023/07/24 08:56:14;;;;;;;9.68;4.07;;;28.10;89.20;;;;;;5050121;28;20029;-55
2023/07/24 08:58:40;;;;;;;8.27;3.85;;;27.50;90.80;;;;;;5050096;28;20152;-55
2023/07/24 09:01:06;;;;;;;5.95;3.38;;;26.80;90.70;;;;;;5047933;28;20021;-55
2023/07/24 09:03:33;;;;;;;5.13;3.58;;;27.00;90.90;;;;;;5049672;28;20013;-55
2023/07/24 09:06:03;;;;;;;4.95;3.55;;;26.80;91.50;;;;;;5050671;28;20060;-55
2023/07/24 09:08:34;;;;;;;5.18;3.45;;;26.50;91.20;;;;;;5049891;28;20478;-55
2023/07/24 09:11:02;;;;;;;6.10;3.92;;;26.20;91.20;;;;;;5048454;28;20044;-54
2023/07/24 09:13:28;;;;;;;5.03;3.80;;;26.00;91.70;;;;;;5047681;28;20051;-55
2023/07/24 09:15:54;;;;;;;6.70;3.45;;;26.00;91.90;;;;;;5050024;28;20059;-55
2023/07/24 09:18:20;;;;;;;5.45;3.60;;;25.70;92.00;;;;;;5046299;28;20418;-55
2023/07/24 09:20:47;;;;;;;7.70;4.18;;;25.40;92.10;;;;;;5041475;28;20029;-54
2023/07/24 09:23:14;;;;;;;6.25;3.67;;;25.10;92.90;;;;;;5049085;28;20563;-55
2023/07/24 09:25:42;;;;;;;5.63;3.83;;;24.70;92.80;;;;;;5046955;28;20032;-55
2023/07/24 09:28:14;;;;;;;9.15;4.20;;;24.50;94.60;;;;;;5047426;28;20025;-55
2023/07/24 09:30:40;;;;;;;10.65;4.78;;;24.20;97.90;;;;;;5049014;28;20028;-53
2023/07/24 09:33:07;;;;;;;3.63;3.33;;;23.60;99.90;;;;;;5046848;28;20055;-54
2023/07/24 09:35:33;;;;;;;4.30;3.30;;;23.10;99.90;;;;;;5048421;28;20026;-54
2023/07/24 09:38:10;;;;;;;3.95;3.15;;;22.80;99.90;;;;;;5048663;28;20036;-53
2023/07/24 09:40:47;;;;;;;4.65;3.30;;;22.40;99.90;;;;;;5048888;28;20417;-53
2023/07/24 09:43:23;;;;;;;5.60;2.90;;;22.10;99.90;;;;;;5048713;28;20021;-53
2023/07/24 09:45:50;;;;;;;6.63;3.67;;;21.80;99.90;;;;;;5049175;28;20425;-53
2023/07/24 09:48:18;;;;;;;4.55;3.00;;;21.70;99.90;;;;;;5048961;28;20087;-54
2023/07/24 09:50:46;;;;;;;3.88;3.00;;;21.80;99.90;;;;;;5048637;28;20124;-54
2023/07/24 09:53:22;;;;;;;4.10;3.03;;;22.10;99.90;;;;;;5048726;28;20040;-54
2023/07/24 09:55:58;;;;;;;4.78;2.85;;;22.90;99.90;;;;;;5048587;28;20029;-53
2023/07/24 09:58:25;;;;;;;4.70;2.60;;;23.30;99.90;;;;;;5048647;28;20029;-54
2023/07/24 10:00:52;;;;;;;3.85;2.60;;;24.00;99.90;;;;;;5048680;28;20033;-55
2023/07/24 10:03:18;;;;;;;2.97;2.55;;;25.00;99.90;;;;;;5047787;28;20025;-54
2023/07/24 10:05:47;;;;;;;3.50;2.50;;;25.70;99.90;;;;;;5048782;28;20083;-55
2023/07/24 10:08:15;;;;;;;2.97;2.70;;;26.60;99.40;;;;;;5048301;28;20025;-55
2023/07/24 10:10:41;;;;;;;3.80;2.30;;;27.40;97.20;;;;;;5048482;28;20179;-54
2023/07/24 10:13:10;;;;;;;3.42;2.53;;;27.50;96.20;;;;;;5048212;28;20021;-55
2023/07/24 10:15:37;;;;;;;2.73;2.40;;;27.40;95.50;;;;;;5046871;28;20025;-54
2023/07/24 10:18:04;;;;;;;2.47;2.28;;;27.70;95.90;;;;;;5048161;28;20275;-55
2023/07/24 10:20:41;;;;;;;3.22;2.30;;;28.10;95.00;;;;;;5048564;28;20021;-55
2023/07/24 10:23:11;;;;;;;5.75;2.42;;;28.00;94.20;;;;;;5046621;28;20036;-55
2023/07/24 10:25:43;;;;;;;4.75;2.55;;;28.10;93.70;;;;;;5047510;28;20025;-55
2023/07/24 10:28:16;;;;;;;4.30;2.40;;;28.30;93.70;;;;;;5046945;28;20108;-55
2023/07/24 10:30:41;;;;;;;3.30;2.38;;;29.20;92.30;;;;;;5048117;28;20059;-56
2023/07/24 10:33:13;;;;;;;4.20;2.42;;;29.70;89.90;;;;;;5047152;28;20351;-55
2023/07/24 10:35:47;;;;;;;3.10;2.53;;;29.20;91.00;;;;;;5048057;28;20017;-55
2023/07/24 10:38:14;;;;;;;2.80;2.60;;;28.80;91.30;;;;;;5048382;28;20402;-55
2023/07/24 10:40:41;;;;;;;3.42;2.80;;;28.80;90.90;;;;;;5047603;28;20024;-55
2023/07/24 10:43:09;;;;;;;3.00;2.40;;;28.10;91.00;;;;;;5047583;28;20159;-55
2023/07/24 10:45:52;;;;;;;4.22;2.95;;;28.70;91.70;;;;;;5048221;28;20551;-55
2023/07/24 10:48:19;;;;;;;2.80;2.38;;;30.20;90.70;;;;;;5048556;28;20024;-55
2023/07/24 10:50:49;;;;;;;3.08;2.60;;;31.70;87.50;;;;;;5048207;28;20036;-55
2023/07/24 10:53:16;;;;;;;4.72;2.35;;;32.70;83.00;;;;;;5047695;28;20021;-55
2023/07/24 10:55:43;;;;;;;3.05;2.75;;;32.40;80.50;;;;;;5047302;28;20504;-55
2023/07/24 10:58:09;;;;;;;2.85;2.50;;;31.30;81.80;;;;;;5048170;28;20114;-55
2023/07/24 11:00:35;;;;;;;3.20;2.90;;;30.10;83.80;;;;;;5047853;28;20024;-55
2023/07/24 11:03:01;;;;;;;2.67;2.45;;;29.80;86.30;;;;;;5047531;28;20033;-55
2023/07/24 11:05:27;;;;;;;3.47;2.25;;;30.40;84.50;;;;;;5047710;28;20017;-55
2023/07/24 11:07:52;;;;;;;2.53;2.20;;;31.40;83.00;;;;;;5047652;28;20025;-55
2023/07/24 11:10:20;;;;;;;4.05;2.40;;;32.10;81.70;;;;;;5047930;28;20111;-55
2023/07/24 11:12:46;;;;;;;3.80;2.50;;;32.50;78.80;;;;;;5047431;28;20108;-54
2023/07/24 11:15:12;;;;;;;3.30;2.40;;;33.00;78.00;;;;;;5047674;28;20508;-54
2023/07/24 11:17:42;;;;;;;4.05;2.33;;;32.40;76.40;;;;;;5045681;28;20029;-54
2023/07/24 11:20:13;;;;;;;4.18;2.78;;;31.70;78.40;;;;;;5048136;28;20481;-53
2023/07/24 11:22:40;;;;;;;3.28;2.65;;;30.40;79.90;;;;;;5047227;28;20078;-53
2023/07/24 11:25:06;;;;;;;3.03;2.50;;;29.50;82.40;;;;;;5041051;28;20020;-53
2023/07/24 11:27:32;;;;;;;3.00;2.72;;;28.50;83.50;;;;;;5047810;28;20028;-53
2023/07/24 11:29:58;;;;;;;2.88;2.60;;;28.00;86.20;;;;;;5047096;28;20013;-56
2023/07/24 11:32:24;;;;;;;3.63;3.33;;;27.50;88.20;;;;;;5047248;28;20036;-55
2023/07/24 11:34:50;;;;;;;3.97;2.70;;;28.60;86.50;;;;;;5046690;28;20449;-55
2023/07/24 11:37:18;;;;;;;3.85;2.35;;;30.30;84.20;;;;;;5048362;28;20029;-55
2023/07/24 11:39:43;;;;;;;2.85;2.58;;;31.30;80.80;;;;;;5050708;28;20031;-55
2023/07/24 11:42:09;;;;;;;4.45;2.53;;;32.40;77.10;;;;;;5050693;28;20429;-56
2023/07/24 11:44:34;;;;;;;3.90;2.50;;;33.20;75.60;;;;;;5050849;28;20454;-56
2023/07/24 11:47:04;;;;;;;3.75;2.40;;;33.70;73.30;;;;;;5051123;28;20106;-56
2023/07/24 11:49:31;;;;;;;4.78;2.13;;;34.00;74.10;;;;;;5049916;28;20025;-56
2023/07/24 11:52:02;;;;;;;2.70;2.45;;;33.10;72.10;;;;;;5042932;28;20417;-56
2023/07/24 11:54:28;;;;;;;2.55;2.10;;;32.60;72.90;;;;;;5050875;28;20091;-55
2023/07/24 11:56:53;;;;;;;4.72;2.50;;;31.50;73.70;;;;;;5043095;28;20021;-56
2023/07/24 11:59:19;;;;;;;2.40;2.20;;;30.50;74.50;;;;;;5050279;28;20048;-56
2023/07/24 12:01:48;;;;;;;2.95;2.20;;;29.70;77.90;;;;;;5050577;28;20017;-56
2023/07/24 12:04:15;;;;;;;3.75;2.22;;;28.70;80.50;;;;;;5049697;28;20028;-55
2023/07/24 12:06:41;;;;;;;2.58;2.17;;;28.70;80.90;;;;;;5051053;28;20025;-55
2023/07/24 12:09:07;;;;;;;3.33;2.50;;;29.30;82.30;;;;;;5048046;28;20513;-55
2023/07/24 12:11:46;;;;;;;4.47;2.55;;;30.20;81.50;;;;;;5048031;28;20025;-55
2023/07/24 12:14:12;;;;;;;4.05;2.72;;;30.60;77.90;;;;;;5050202;28;20053;-55
2023/07/24 12:16:38;;;;;;;3.70;2.75;;;30.20;78.70;;;;;;5050055;28;20048;-56
2023/07/24 12:19:04;;;;;;;5.97;2.72;;;29.70;78.80;;;;;;5049011;28;20029;-55
2023/07/24 12:21:29;;;;;;;3.40;2.72;;;29.00;79.10;;;;;;5046220;28;20028;-55
2023/07/24 12:23:55;;;;;;;4.30;2.55;;;28.40;80.80;;;;;;5043306;28;20021;-55
2023/07/24 12:26:20;;;;;;;3.97;2.90;;;27.80;86.00;;;;;;5050388;28;20483;-54
2023/07/24 12:28:46;;;;;;;7.25;3.03;;;26.90;90.50;;;;;;5046990;28;20040;-54
2023/07/24 12:31:11;;;;;;;8.40;3.40;;;26.10;92.90;;;;;;5047373;28;20039;-54
2023/07/24 12:33:37;;;;;;;7.00;3.47;;;25.50;95.00;;;;;;5050118;28;20032;-53
2023/07/24 12:36:03;;;;;;;5.85;3.47;;;25.10;95.10;;;;;;5050505;28;20051;-54
2023/07/24 12:38:29;;;;;;;4.53;3.00;;;25.00;97.20;;;;;;5050161;28;20458;-53
2023/07/24 12:40:54;;;;;;;4.38;3.13;;;25.10;97.90;;;;;;5050221;28;20013;-54
2023/07/24 12:43:20;;;;;;;5.22;3.47;;;25.80;99.20;;;;;;5049742;28;20126;-54